createdAt,value
2022-07-27T00:02:55.525Z,49.37
2022-07-27T00:07:58.478Z,49.09
2022-07-27T00:13:01.752Z,50.36
2022-07-27T00:18:04.628Z,51.65
2022-07-27T00:23:07.605Z,52.74
2022-07-27T00:28:10.403Z,53.72
2022-07-27T00:33:17.215Z,54.95
2022-07-27T00:38:20.462Z,56.26
2022-07-27T00:43:23.230Z,56.97
2022-07-27T00:48:26.529Z,57.60
2022-07-27T00:53:30.283Z,58.01
2022-07-27T00:58:33.998Z,58.92
2022-07-27T01:03:36.919Z,59.53
2022-07-27T01:08:42.719Z,60.40
2022-07-27T01:13:45.687Z,60.33
2022-07-27T01:18:48.487Z,60.61
2022-07-27T01:23:51.303Z,61.42
2022-07-27T01:28:59.198Z,61.91
2022-07-27T01:34:03.662Z,62.17
2022-07-27T01:39:07.090Z,62.55
2022-07-27T01:44:10.442Z,62.50
2022-07-27T01:49:13.593Z,62.47
2022-07-27T01:54:17.217Z,62.03
2022-07-27T01:59:20.029Z,62.48
2022-07-27T02:04:24.872Z,62.34
2022-07-27T02:09:27.748Z,62.57
2022-07-27T02:14:30.593Z,62.92
2022-07-27T02:19:34.037Z,63.25
2022-07-27T02:24:37.933Z,63.50
2022-07-27T02:29:40.792Z,63.81
2022-07-27T02:34:44.322Z,64.02
2022-07-27T02:39:47.397Z,64.27
2022-07-27T02:44:50.314Z,64.44
2022-07-27T02:49:53.173Z,64.29
2022-07-27T02:54:56.001Z,64.40
2022-07-27T02:59:58.822Z,64.87
2022-07-27T03:05:01.760Z,65.16
2022-07-27T03:10:05.676Z,64.98
2022-07-27T03:15:09.520Z,65.15
2022-07-27T03:20:12.582Z,64.92
2022-07-27T03:25:15.379Z,64.81
2022-07-27T03:30:18.376Z,64.71
2022-07-27T03:35:21.301Z,64.87
2022-07-27T03:40:24.915Z,65.01
2022-07-27T03:45:28.211Z,65.15
2022-07-27T03:50:31.093Z,65.47
2022-07-27T03:55:33.977Z,65.37
2022-07-27T04:00:36.769Z,65.42
2022-07-27T04:05:39.663Z,65.18
2022-07-27T04:10:42.614Z,65.15
2022-07-27T04:15:46.531Z,65.38
2022-07-27T04:20:49.330Z,65.25
2022-07-27T04:25:52.026Z,65.30
2022-07-27T04:30:54.938Z,65.25
2022-07-27T04:35:57.759Z,65.21
2022-07-27T04:41:00.837Z,65.44
2022-07-27T04:46:05.372Z,65.47
2022-07-27T04:51:08.290Z,65.21
2022-07-27T04:56:11.661Z,64.95
2022-07-27T05:01:14.727Z,63.33
2022-07-27T05:06:17.786Z,62.85
2022-07-27T05:11:20.715Z,63.40
2022-07-27T05:16:28.525Z,63.01
2022-07-27T05:21:31.711Z,62.26
2022-07-27T05:26:34.531Z,61.00
2022-07-27T05:31:37.356Z,59.71
2022-07-27T05:36:40.230Z,58.15
2022-07-27T05:41:43.578Z,57.76
2022-07-27T05:46:46.382Z,57.79
2022-07-27T05:51:49.994Z,57.09
2022-07-27T05:56:53.229Z,55.33
2022-07-27T06:01:55.983Z,54.09
2022-07-27T06:07:17.015Z,53.32
2022-07-27T06:12:20.514Z,53.56
2022-07-27T06:17:23.622Z,53.06
2022-07-27T06:22:26.429Z,52.80
2022-07-27T06:27:29.806Z,52.56
2022-07-27T06:32:33.145Z,51.94
2022-07-27T06:37:37.688Z,51.08
2022-07-27T06:42:42.029Z,49.21
2022-07-27T06:47:49.383Z,46.99
2022-07-27T06:52:52.890Z,46.74
2022-07-27T06:57:55.889Z,44.25
2022-07-27T07:03:02.945Z,45.48
2022-07-27T07:08:11.415Z,44.68
2022-07-27T07:13:14.506Z,44.00
2022-07-27T07:18:17.395Z,42.19
2022-07-27T07:23:20.277Z,42.56
2022-07-27T07:28:23.033Z,42.61
2022-07-27T07:33:27.137Z,42.45
2022-07-27T07:38:30.070Z,41.45
2022-07-27T07:43:35.627Z,40.62
2022-07-27T07:48:39.647Z,41.10
2022-07-27T07:53:42.722Z,41.01
2022-07-27T07:58:45.662Z,41.15
2022-07-27T08:03:51.076Z,40.55
2022-07-27T08:08:54.298Z,39.49
2022-07-27T08:13:57.074Z,38.05
2022-07-27T08:18:59.855Z,37.85
2022-07-27T08:24:04.009Z,37.90
2022-07-27T08:29:13.129Z,37.30
2022-07-27T08:34:16.556Z,37.03
2022-07-27T08:40:05.486Z,36.45
2022-07-27T08:44:42.663Z,34.99
2022-07-27T08:49:49.496Z,35.32
2022-07-27T08:54:52.933Z,35.46
2022-07-27T08:59:56.979Z,33.81
2022-07-27T09:04:59.929Z,33.71
2022-07-27T09:10:05.315Z,33.63
2022-07-27T09:15:12.480Z,32.42
2022-07-27T09:20:19.530Z,31.93
2022-07-27T09:26:00.819Z,31.68
2022-07-27T09:30:53.618Z,31.02
2022-07-27T09:36:00.248Z,31.29
2022-07-27T09:41:06.109Z,30.61
2022-07-27T09:46:09.821Z,30.23
2022-07-27T09:51:57.786Z,29.42
2022-07-27T09:56:36.035Z,30.90
2022-07-27T10:01:47.672Z,30.13
2022-07-27T10:07:02.905Z,29.74
2022-07-27T10:12:07.207Z,29.68
2022-07-27T10:17:13.053Z,28.92
2022-07-27T10:22:16.715Z,29.06
2022-07-27T10:27:28.251Z,28.22
2022-07-27T10:32:33.301Z,27.64
2022-07-27T10:37:36.208Z,26.99
2022-07-27T10:42:39.809Z,26.56
2022-07-27T10:47:45.516Z,25.75
2022-07-27T10:53:02.468Z,25.33
2022-07-27T10:58:28.789Z,24.58
2022-07-27T11:03:42.391Z,25.44
2022-07-27T11:09:08.543Z,24.99
2022-07-27T11:14:12.593Z,24.65
2022-07-27T11:19:18.261Z,24.00
2022-07-27T11:24:23.635Z,23.53
2022-07-27T11:29:26.962Z,23.95
2022-07-27T11:34:37.252Z,23.89
2022-07-27T11:45:03.082Z,23.79
2022-07-27T11:50:11.500Z,23.27
2022-07-27T11:55:14.499Z,23.20
2022-07-27T12:00:17.473Z,22.56
2022-07-27T12:05:20.380Z,21.91
2022-07-27T12:10:23.426Z,22.32
2022-07-27T12:15:45.243Z,23.07
2022-07-27T12:20:50.216Z,21.77
2022-07-27T12:25:53.246Z,21.03
2022-07-27T12:30:56.071Z,21.62
2022-07-27T12:36:01.079Z,20.85
2022-07-27T12:41:03.920Z,20.95
2022-07-27T12:46:14.390Z,21.90
2022-07-27T12:51:26.269Z,21.98
2022-07-27T12:56:29.240Z,22.52
2022-07-27T13:01:32.171Z,22.93
2022-07-27T13:06:35.103Z,23.02
2022-07-27T13:11:37.929Z,23.80
2022-07-27T13:16:40.812Z,23.43
2022-07-27T13:21:43.804Z,23.18
2022-07-27T13:26:49.283Z,22.71
2022-07-27T13:31:57.109Z,22.26
2022-07-27T13:37:00.736Z,22.36
2022-07-27T13:42:03.818Z,22.46
2022-07-27T13:47:07.698Z,22.04
2022-07-27T13:52:14.926Z,21.51
2022-07-27T13:57:18.338Z,20.56
2022-07-27T14:02:23.248Z,21.11
2022-07-27T14:07:28.807Z,21.37
2022-07-27T14:12:31.591Z,22.24
2022-07-27T14:17:34.550Z,22.63
2022-07-27T14:22:37.438Z,22.31
2022-07-27T14:27:40.529Z,22.41
2022-07-27T14:32:43.654Z,22.25
2022-07-27T14:37:46.886Z,21.71
2022-07-27T14:42:49.789Z,21.58
2022-07-27T14:47:52.851Z,20.25
2022-07-27T14:52:56.899Z,21.28
2022-07-27T14:57:59.729Z,21.09
2022-07-27T15:03:03.683Z,20.71
2022-07-27T15:08:06.884Z,20.98
2022-07-27T15:13:10.298Z,20.94
2022-07-27T15:18:13.078Z,20.69
2022-07-27T15:23:16.878Z,20.03
2022-07-27T15:28:20.019Z,20.08
2022-07-27T15:33:23.113Z,19.91
2022-07-27T15:38:25.991Z,19.56
2022-07-27T15:43:28.826Z,19.81
2022-07-27T15:48:32.139Z,20.32
2022-07-27T15:53:36.464Z,20.72
2022-07-27T15:58:39.270Z,21.63
2022-07-27T16:03:42.102Z,22.30
2022-07-27T16:08:46.413Z,23.29
2022-07-27T16:13:49.417Z,24.03
2022-07-27T16:18:53.935Z,24.70
2022-07-27T16:23:58.677Z,24.60
2022-07-27T16:29:02.611Z,24.99
2022-07-27T16:34:05.566Z,25.56
2022-07-27T16:39:08.442Z,26.11
2022-07-27T16:44:12.129Z,27.05
2022-07-27T16:49:16.326Z,27.39
2022-07-27T16:54:19.561Z,28.35
2022-07-27T16:59:22.468Z,28.50
2022-07-27T17:04:25.408Z,29.02
2022-07-27T17:09:28.365Z,30.11
2022-07-27T17:14:31.431Z,30.93
2022-07-27T17:19:35.217Z,31.51
2022-07-27T17:24:38.469Z,32.08
2022-07-27T17:29:41.402Z,32.40
2022-07-27T17:34:45.595Z,32.22
2022-07-27T17:39:48.573Z,32.47
2022-07-27T17:44:52.444Z,33.13
2022-07-27T17:49:59.094Z,33.85
2022-07-27T17:55:02.708Z,33.93
2022-07-27T18:00:06.747Z,34.44
2022-07-27T18:05:13.189Z,34.93
2022-07-27T18:10:16.981Z,35.34
2022-07-27T18:15:38.808Z,34.95
2022-07-27T18:20:42.821Z,35.16
2022-07-27T18:25:46.923Z,35.34
2022-07-27T18:30:52.875Z,35.52
2022-07-27T18:35:56.418Z,35.35
2022-07-27T18:41:00.765Z,35.34
2022-07-27T18:46:04.504Z,35.07
2022-07-27T18:51:07.315Z,35.05
2022-07-27T18:56:10.947Z,35.31
2022-07-27T19:01:13.836Z,36.24
2022-07-27T19:06:18.191Z,37.74
2022-07-27T19:11:21.726Z,39.22
2022-07-27T19:16:25.523Z,42.08
2022-07-27T19:21:28.773Z,44.56
2022-07-27T19:26:31.837Z,45.22
2022-07-27T19:31:36.663Z,45.92
2022-07-27T19:36:39.592Z,46.19
2022-07-27T19:41:42.725Z,46.70
2022-07-27T19:46:46.666Z,45.98
2022-07-27T19:51:50.268Z,46.38
2022-07-27T19:56:53.753Z,46.35
2022-07-27T20:01:56.986Z,45.69
2022-07-27T20:06:59.930Z,44.96
2022-07-27T20:12:04.010Z,44.40
2022-07-27T20:17:07.096Z,43.91
2022-07-27T20:22:10.042Z,43.83
2022-07-27T20:27:13.911Z,44.78
2022-07-27T20:32:17.232Z,45.17
2022-07-27T20:37:22.845Z,44.36
2022-07-27T20:42:25.831Z,42.71
2022-07-27T20:47:34.315Z,42.47
2022-07-27T20:52:39.802Z,42.11
2022-07-27T20:57:42.743Z,42.85
2022-07-27T21:02:45.702Z,42.95
2022-07-27T21:07:48.671Z,43.11
2022-07-27T21:12:51.816Z,43.56
2022-07-27T21:17:54.694Z,43.38
2022-07-27T21:23:16.218Z,43.52
2022-07-27T21:28:23.097Z,43.61
2022-07-27T21:33:28.448Z,43.87
2022-07-27T21:38:31.346Z,43.96
2022-07-27T21:43:35.052Z,44.38
2022-07-27T21:48:37.984Z,44.04
2022-07-27T21:53:40.902Z,43.93
2022-07-27T21:58:45.997Z,44.00
2022-07-27T22:03:48.972Z,43.83
2022-07-27T22:08:52.059Z,43.45
2022-07-27T22:13:54.905Z,44.08
2022-07-27T22:18:57.820Z,43.93
2022-07-27T22:24:01.348Z,43.61
2022-07-27T22:29:04.233Z,43.50
2022-07-27T22:34:07.137Z,44.06
2022-07-27T22:39:09.974Z,44.23
2022-07-27T22:44:13.273Z,43.63
2022-07-27T22:49:18.829Z,43.35
2022-07-27T22:54:21.982Z,43.22
2022-07-27T22:59:26.593Z,43.03
2022-07-27T23:04:29.819Z,43.00
2022-07-27T23:09:32.589Z,43.36
2022-07-27T23:14:35.320Z,43.30
2022-07-27T23:19:38.108Z,43.36
2022-07-27T23:24:41.107Z,43.76
2022-07-27T23:29:45.094Z,43.82
2022-07-27T23:34:48.198Z,43.62
2022-07-27T23:39:51.352Z,43.96
2022-07-27T23:44:54.232Z,44.02
2022-07-27T23:49:57.150Z,44.01
2022-07-27T23:55:00.752Z,44.35
